sensor_id;sensor_type;location;lat;lon;timestamp;temperature;humidity
51021;DHT22;38907;45.562;8.856;2022-10-31T00:02:13;14.30;99.90
51021;DHT22;38907;45.562;8.856;2022-10-31T00:07:15;14.50;99.90
51021;DHT22;38907;45.562;8.856;2022-10-31T00:12:17;14.50;99.90
51021;DHT22;38907;45.562;8.856;2022-10-31T00:17:20;14.40;99.90
51021;DHT22;38907;45.562;8.856;2022-10-31T00:22:21;14.30;99.90
51021;DHT22;38907;45.562;8.856;2022-10-31T00:27:23;14.20;99.90
51021;DHT22;38907;45.562;8.856;2022-10-31T00:32:28;14.40;99.90
51021;DHT22;38907;45.562;8.856;2022-10-31T00:37:29;14.40;99.90
51021;DHT22;38907;45.562;8.856;2022-10-31T00:42:31;14.40;99.90
51021;DHT22;38907;45.562;8.856;2022-10-31T00:47:34;14.40;99.90
51021;DHT22;38907;45.562;8.856;2022-10-31T00:52:36;14.30;99.90
51021;DHT22;38907;45.562;8.856;2022-10-31T00:57:37;14.30;99.90
51021;DHT22;38907;45.562;8.856;2022-10-31T01:02:40;14.30;99.90
51021;DHT22;38907;45.562;8.856;2022-10-31T01:07:42;14.20;99.90
51021;DHT22;38907;45.562;8.856;2022-10-31T01:12:45;14.30;99.90
51021;DHT22;38907;45.562;8.856;2022-10-31T01:17:48;14.40;99.90
51021;DHT22;38907;45.562;8.856;2022-10-31T01:22:50;14.30;99.90
51021;DHT22;38907;45.562;8.856;2022-10-31T01:27:51;14.30;99.90
51021;DHT22;38907;45.562;8.856;2022-10-31T01:32:54;14.20;99.90
51021;DHT22;38907;45.562;8.856;2022-10-31T01:37:56;14.20;99.90
51021;DHT22;38907;45.562;8.856;2022-10-31T01:42:58;14.20;99.90
51021;DHT22;38907;45.562;8.856;2022-10-31T01:48:01;14.10;99.90
51021;DHT22;38907;45.562;8.856;2022-10-31T01:53:02;13.90;99.90
51021;DHT22;38907;45.562;8.856;2022-10-31T01:58:09;13.80;99.90
51021;DHT22;38907;45.562;8.856;2022-10-31T02:03:14;13.80;99.90
51021;DHT22;38907;45.562;8.856;2022-10-31T02:08:16;13.90;99.90
51021;DHT22;38907;45.562;8.856;2022-10-31T02:13:20;14.10;99.90
51021;DHT22;38907;45.562;8.856;2022-10-31T02:18:24;14.00;99.90
51021;DHT22;38907;45.562;8.856;2022-10-31T02:23:44;14.00;99.90
51021;DHT22;38907;45.562;8.856;2022-10-31T02:28:54;14.00;99.90
51021;DHT22;38907;45.562;8.856;2022-10-31T02:34:02;14.10;99.90
51021;DHT22;38907;45.562;8.856;2022-10-31T02:39:08;14.10;99.90
51021;DHT22;38907;45.562;8.856;2022-10-31T02:44:15;14.00;99.90
51021;DHT22;38907;45.562;8.856;2022-10-31T02:49:21;14.00;99.90
51021;DHT22;38907;45.562;8.856;2022-10-31T02:54:24;14.00;99.90
51021;DHT22;38907;45.562;8.856;2022-10-31T02:59:26;13.90;99.90
51021;DHT22;38907;45.562;8.856;2022-10-31T03:04:53;13.90;99.90
51021;DHT22;38907;45.562;8.856;2022-10-31T03:10:01;13.90;99.90
51021;DHT22;38907;45.562;8.856;2022-10-31T03:15:06;14.00;99.90
51021;DHT22;38907;45.562;8.856;2022-10-31T03:20:11;13.90;99.90
51021;DHT22;38907;45.562;8.856;2022-10-31T03:25:13;13.70;99.90
51021;DHT22;38907;45.562;8.856;2022-10-31T03:30:15;13.80;99.90
51021;DHT22;38907;45.562;8.856;2022-10-31T03:35:19;13.80;99.90
51021;DHT22;38907;45.562;8.856;2022-10-31T03:40:22;13.60;99.90
51021;DHT22;38907;45.562;8.856;2022-10-31T03:45:25;13.50;99.90
51021;DHT22;38907;45.562;8.856;2022-10-31T03:50:32;13.70;99.90
51021;DHT22;38907;45.562;8.856;2022-10-31T03:55:38;13.60;99.90
51021;DHT22;38907;45.562;8.856;2022-10-31T04:00:42;13.60;99.90
51021;DHT22;38907;45.562;8.856;2022-10-31T04:05:47;13.50;99.90
51021;DHT22;38907;45.562;8.856;2022-10-31T04:10:49;13.50;99.90
51021;DHT22;38907;45.562;8.856;2022-10-31T04:15:51;13.30;99.90
51021;DHT22;38907;45.562;8.856;2022-10-31T04:21:00;13.30;99.90
51021;DHT22;38907;45.562;8.856;2022-10-31T04:26:02;13.30;99.90
51021;DHT22;38907;45.562;8.856;2022-10-31T04:31:04;13.30;99.90
51021;DHT22;38907;45.562;8.856;2022-10-31T04:36:07;13.40;99.90
51021;DHT22;38907;45.562;8.856;2022-10-31T04:41:09;13.40;99.90
51021;DHT22;38907;45.562;8.856;2022-10-31T04:46:11;13.50;99.90
51021;DHT22;38907;45.562;8.856;2022-10-31T04:51:14;13.40;99.90
51021;DHT22;38907;45.562;8.856;2022-10-31T04:56:15;13.40;99.90
51021;DHT22;38907;45.562;8.856;2022-10-31T05:01:17;13.30;99.90
51021;DHT22;38907;45.562;8.856;2022-10-31T05:06:20;13.40;99.90
51021;DHT22;38907;45.562;8.856;2022-10-31T05:11:22;13.50;99.90
51021;DHT22;38907;45.562;8.856;2022-10-31T05:16:23;13.40;99.90
51021;DHT22;38907;45.562;8.856;2022-10-31T05:21:26;13.10;99.90
51021;DHT22;38907;45.562;8.856;2022-10-31T05:26:28;13.10;99.90
51021;DHT22;38907;45.562;8.856;2022-10-31T05:31:34;13.00;99.90
51021;DHT22;38907;45.562;8.856;2022-10-31T05:36:42;13.00;99.90
51021;DHT22;38907;45.562;8.856;2022-10-31T05:41:44;13.10;99.90
51021;DHT22;38907;45.562;8.856;2022-10-31T05:46:46;13.10;99.90
51021;DHT22;38907;45.562;8.856;2022-10-31T05:51:49;13.10;99.90
51021;DHT22;38907;45.562;8.856;2022-10-31T05:56:50;13.00;99.90
51021;DHT22;38907;45.562;8.856;2022-10-31T06:01:52;12.90;99.90
51021;DHT22;38907;45.562;8.856;2022-10-31T06:06:55;12.80;99.90
51021;DHT22;38907;45.562;8.856;2022-10-31T06:11:57;12.80;99.90
51021;DHT22;38907;45.562;8.856;2022-10-31T06:16:59;12.80;99.90
51021;DHT22;38907;45.562;8.856;2022-10-31T06:22:02;12.90;99.90
51021;DHT22;38907;45.562;8.856;2022-10-31T06:27:03;13.00;99.90
51021;DHT22;38907;45.562;8.856;2022-10-31T06:32:05;13.10;99.90
51021;DHT22;38907;45.562;8.856;2022-10-31T06:37:08;13.20;99.90
51021;DHT22;38907;45.562;8.856;2022-10-31T06:42:10;13.30;99.90
51021;DHT22;38907;45.562;8.856;2022-10-31T06:47:12;13.50;99.90
51021;DHT22;38907;45.562;8.856;2022-10-31T06:52:15;13.60;99.90
51021;DHT22;38907;45.562;8.856;2022-10-31T06:57:17;13.80;99.90
51021;DHT22;38907;45.562;8.856;2022-10-31T07:02:18;13.90;99.90
51021;DHT22;38907;45.562;8.856;2022-10-31T07:07:21;14.10;99.90
51021;DHT22;38907;45.562;8.856;2022-10-31T07:12:23;14.20;99.90
51021;DHT22;38907;45.562;8.856;2022-10-31T07:17:25;14.30;99.90
51021;DHT22;38907;45.562;8.856;2022-10-31T07:22:33;14.50;99.90
51021;DHT22;38907;45.562;8.856;2022-10-31T07:27:35;14.60;99.90
51021;DHT22;38907;45.562;8.856;2022-10-31T07:32:37;14.60;99.90
51021;DHT22;38907;45.562;8.856;2022-10-31T07:37:40;14.80;99.90
51021;DHT22;38907;45.562;8.856;2022-10-31T07:42:43;14.90;99.90
51021;DHT22;38907;45.562;8.856;2022-10-31T07:47:45;15.00;99.90
51021;DHT22;38907;45.562;8.856;2022-10-31T07:52:48;15.10;99.90
51021;DHT22;38907;45.562;8.856;2022-10-31T07:57:58;15.20;99.90
51021;DHT22;38907;45.562;8.856;2022-10-31T08:06:14;15.30;99.90
51021;DHT22;38907;45.562;8.856;2022-10-31T08:11:15;15.40;99.90
51021;DHT22;38907;45.562;8.856;2022-10-31T08:16:17;15.40;99.90
51021;DHT22;38907;45.562;8.856;2022-10-31T08:21:21;15.50;99.90
51021;DHT22;38907;45.562;8.856;2022-10-31T08:26:22;15.70;99.90
51021;DHT22;38907;45.562;8.856;2022-10-31T08:31:24;15.80;99.90
51021;DHT22;38907;45.562;8.856;2022-10-31T08:36:29;15.90;99.90
51021;DHT22;38907;45.562;8.856;2022-10-31T08:41:30;16.10;99.90
51021;DHT22;38907;45.562;8.856;2022-10-31T08:46:33;16.20;99.90
51021;DHT22;38907;45.562;8.856;2022-10-31T08:51:37;16.30;99.90
51021;DHT22;38907;45.562;8.856;2022-10-31T08:56:40;16.30;99.90
51021;DHT22;38907;45.562;8.856;2022-10-31T09:01:42;16.40;99.90
51021;DHT22;38907;45.562;8.856;2022-10-31T09:06:45;16.40;99.90
51021;DHT22;38907;45.562;8.856;2022-10-31T09:11:47;16.50;99.90
51021;DHT22;38907;45.562;8.856;2022-10-31T09:16:49;16.60;99.90
51021;DHT22;38907;45.562;8.856;2022-10-31T09:21:53;16.80;99.90
51021;DHT22;38907;45.562;8.856;2022-10-31T09:26:55;16.90;99.90
51021;DHT22;38907;45.562;8.856;2022-10-31T09:31:57;16.90;99.90
51021;DHT22;38907;45.562;8.856;2022-10-31T09:37:00;17.00;99.90
51021;DHT22;38907;45.562;8.856;2022-10-31T09:42:19;17.20;99.90
51021;DHT22;38907;45.562;8.856;2022-10-31T09:47:36;17.30;99.90
51021;DHT22;38907;45.562;8.856;2022-10-31T09:52:51;17.50;99.90
51021;DHT22;38907;45.562;8.856;2022-10-31T09:57:55;17.50;99.90
51021;DHT22;38907;45.562;8.856;2022-10-31T10:03:01;17.60;99.90
51021;DHT22;38907;45.562;8.856;2022-10-31T10:08:12;17.70;99.90
51021;DHT22;38907;45.562;8.856;2022-10-31T10:13:29;17.90;99.90
51021;DHT22;38907;45.562;8.856;2022-10-31T10:18:42;18.00;99.90
51021;DHT22;38907;45.562;8.856;2022-10-31T10:23:55;18.20;99.90
51021;DHT22;38907;45.562;8.856;2022-10-31T10:29:14;18.20;99.90
51021;DHT22;38907;45.562;8.856;2022-10-31T10:34:20;18.30;99.90
51021;DHT22;38907;45.562;8.856;2022-10-31T10:39:29;18.30;99.90
51021;DHT22;38907;45.562;8.856;2022-10-31T10:44:33;18.50;99.90
51021;DHT22;38907;45.562;8.856;2022-10-31T10:49:52;18.60;99.90
51021;DHT22;38907;45.562;8.856;2022-10-31T10:55:05;18.90;99.90
51021;DHT22;38907;45.562;8.856;2022-10-31T11:00:17;18.80;99.90
51021;DHT22;38907;45.562;8.856;2022-10-31T11:05:35;18.80;99.90
51021;DHT22;38907;45.562;8.856;2022-10-31T11:10:39;18.80;99.90
51021;DHT22;38907;45.562;8.856;2022-10-31T11:15:51;18.80;99.90
51021;DHT22;38907;45.562;8.856;2022-10-31T11:20:55;18.80;99.90
51021;DHT22;38907;45.562;8.856;2022-10-31T11:26:01;18.80;99.90
51021;DHT22;38907;45.562;8.856;2022-10-31T11:31:07;18.90;99.90
51021;DHT22;38907;45.562;8.856;2022-10-31T11:36:18;19.00;99.90
51021;DHT22;38907;45.562;8.856;2022-10-31T11:41:27;19.20;99.90
51021;DHT22;38907;45.562;8.856;2022-10-31T11:46:35;19.30;99.90
51021;DHT22;38907;45.562;8.856;2022-10-31T11:51:39;19.40;99.90
51021;DHT22;38907;45.562;8.856;2022-10-31T11:56:42;19.40;99.90
51021;DHT22;38907;45.562;8.856;2022-10-31T12:01:47;19.40;99.90
51021;DHT22;38907;45.562;8.856;2022-10-31T12:06:51;19.40;99.90
51021;DHT22;38907;45.562;8.856;2022-10-31T12:12:17;19.40;99.90
51021;DHT22;38907;45.562;8.856;2022-10-31T12:17:29;19.60;99.90
51021;DHT22;38907;45.562;8.856;2022-10-31T12:22:41;19.70;99.90
51021;DHT22;38907;45.562;8.856;2022-10-31T12:28:06;19.70;99.90
51021;DHT22;38907;45.562;8.856;2022-10-31T12:33:34;19.80;99.90
51021;DHT22;38907;45.562;8.856;2022-10-31T12:44:30;19.90;99.90
51021;DHT22;38907;45.562;8.856;2022-10-31T12:49:41;19.90;99.90
51021;DHT22;38907;45.562;8.856;2022-10-31T12:54:57;20.10;99.90
51021;DHT22;38907;45.562;8.856;2022-10-31T13:00:11;20.10;99.90
51021;DHT22;38907;45.562;8.856;2022-10-31T13:05:24;20.20;99.90
51021;DHT22;38907;45.562;8.856;2022-10-31T13:10:32;20.30;99.90
51021;DHT22;38907;45.562;8.856;2022-10-31T13:15:51;20.40;99.90
51021;DHT22;38907;45.562;8.856;2022-10-31T13:20:55;20.40;99.90
51021;DHT22;38907;45.562;8.856;2022-10-31T13:26:03;20.50;99.90
51021;DHT22;38907;45.562;8.856;2022-10-31T13:31:09;20.60;99.90
51021;DHT22;38907;45.562;8.856;2022-10-31T13:36:21;20.50;99.90
51021;DHT22;38907;45.562;8.856;2022-10-31T13:41:38;20.40;99.90
51021;DHT22;38907;45.562;8.856;2022-10-31T13:46:44;20.30;99.90
51021;DHT22;38907;45.562;8.856;2022-10-31T13:51:46;20.50;99.90
51021;DHT22;38907;45.562;8.856;2022-10-31T13:56:49;20.60;99.90
51021;DHT22;38907;45.562;8.856;2022-10-31T14:01:54;20.40;99.90
51021;DHT22;38907;45.562;8.856;2022-10-31T14:07:04;20.60;99.90
51021;DHT22;38907;45.562;8.856;2022-10-31T14:12:10;20.40;99.90
51021;DHT22;38907;45.562;8.856;2022-10-31T14:17:21;20.50;99.90
51021;DHT22;38907;45.562;8.856;2022-10-31T14:22:28;20.40;99.90
51021;DHT22;38907;45.562;8.856;2022-10-31T14:27:45;20.40;99.90
51021;DHT22;38907;45.562;8.856;2022-10-31T14:32:52;20.20;99.90
51021;DHT22;38907;45.562;8.856;2022-10-31T14:38:21;20.60;99.90
51021;DHT22;38907;45.562;8.856;2022-10-31T14:43:44;20.70;99.90
51021;DHT22;38907;45.562;8.856;2022-10-31T14:49:06;20.70;99.90
51021;DHT22;38907;45.562;8.856;2022-10-31T14:54:15;20.60;99.90
51021;DHT22;38907;45.562;8.856;2022-10-31T14:59:21;20.50;99.90
51021;DHT22;38907;45.562;8.856;2022-10-31T15:04:27;20.50;99.90
51021;DHT22;38907;45.562;8.856;2022-10-31T15:09:31;20.20;99.90
51021;DHT22;38907;45.562;8.856;2022-10-31T15:14:33;20.30;99.90
51021;DHT22;38907;45.562;8.856;2022-10-31T15:19:36;20.30;99.90
51021;DHT22;38907;45.562;8.856;2022-10-31T15:24:38;20.10;99.90
51021;DHT22;38907;45.562;8.856;2022-10-31T15:29:51;20.00;99.90
51021;DHT22;38907;45.562;8.856;2022-10-31T15:34:55;20.00;99.90
51021;DHT22;38907;45.562;8.856;2022-10-31T15:40:07;19.80;99.90
51021;DHT22;38907;45.562;8.856;2022-10-31T15:45:19;19.60;99.90
51021;DHT22;38907;45.562;8.856;2022-10-31T15:50:25;19.40;99.90
51021;DHT22;38907;45.562;8.856;2022-10-31T15:55:30;19.20;99.90
51021;DHT22;38907;45.562;8.856;2022-10-31T16:00:34;19.10;99.90
51021;DHT22;38907;45.562;8.856;2022-10-31T16:05:44;19.10;99.90
51021;DHT22;38907;45.562;8.856;2022-10-31T16:10:46;19.00;99.90
51021;DHT22;38907;45.562;8.856;2022-10-31T16:15:50;18.90;99.90
51021;DHT22;38907;45.562;8.856;2022-10-31T16:20:55;18.70;99.90
51021;DHT22;38907;45.562;8.856;2022-10-31T16:25:57;18.60;99.90
51021;DHT22;38907;45.562;8.856;2022-10-31T16:31:00;18.40;99.90
51021;DHT22;38907;45.562;8.856;2022-10-31T16:36:30;18.30;99.90
51021;DHT22;38907;45.562;8.856;2022-10-31T16:41:34;18.30;99.90
51021;DHT22;38907;45.562;8.856;2022-10-31T16:46:37;18.10;99.90
51021;DHT22;38907;45.562;8.856;2022-10-31T16:51:40;18.00;99.90
51021;DHT22;38907;45.562;8.856;2022-10-31T16:56:42;17.80;99.90
51021;DHT22;38907;45.562;8.856;2022-10-31T17:01:48;17.70;99.90
51021;DHT22;38907;45.562;8.856;2022-10-31T17:06:51;17.60;99.90
51021;DHT22;38907;45.562;8.856;2022-10-31T17:11:53;17.60;99.90
51021;DHT22;38907;45.562;8.856;2022-10-31T17:16:55;17.40;99.90
51021;DHT22;38907;45.562;8.856;2022-10-31T17:21:58;17.40;99.90
51021;DHT22;38907;45.562;8.856;2022-10-31T17:27:02;17.30;99.90
51021;DHT22;38907;45.562;8.856;2022-10-31T17:32:05;17.30;99.90
51021;DHT22;38907;45.562;8.856;2022-10-31T17:37:09;17.20;99.90
51021;DHT22;38907;45.562;8.856;2022-10-31T17:42:11;17.10;99.90
51021;DHT22;38907;45.562;8.856;2022-10-31T17:47:13;17.10;99.90
51021;DHT22;38907;45.562;8.856;2022-10-31T17:52:17;17.00;99.90
51021;DHT22;38907;45.562;8.856;2022-10-31T17:57:19;17.00;99.90
51021;DHT22;38907;45.562;8.856;2022-10-31T18:02:21;16.90;99.90
51021;DHT22;38907;45.562;8.856;2022-10-31T18:07:24;17.00;99.90
51021;DHT22;38907;45.562;8.856;2022-10-31T18:12:27;16.80;99.90
51021;DHT22;38907;45.562;8.856;2022-10-31T18:17:31;16.80;99.90
51021;DHT22;38907;45.562;8.856;2022-10-31T18:22:35;16.80;99.90
51021;DHT22;38907;45.562;8.856;2022-10-31T18:27:37;16.80;99.90
51021;DHT22;38907;45.562;8.856;2022-10-31T18:32:39;16.70;99.90
51021;DHT22;38907;45.562;8.856;2022-10-31T18:37:42;16.70;99.90
51021;DHT22;38907;45.562;8.856;2022-10-31T18:42:44;16.50;99.90
51021;DHT22;38907;45.562;8.856;2022-10-31T18:47:45;16.50;99.90
51021;DHT22;38907;45.562;8.856;2022-10-31T18:52:49;16.50;99.90
51021;DHT22;38907;45.562;8.856;2022-10-31T18:57:51;16.40;99.90
51021;DHT22;38907;45.562;8.856;2022-10-31T19:02:53;16.30;99.90
51021;DHT22;38907;45.562;8.856;2022-10-31T19:07:56;16.20;99.90
51021;DHT22;38907;45.562;8.856;2022-10-31T19:12:58;16.10;99.90
51021;DHT22;38907;45.562;8.856;2022-10-31T19:18:00;16.10;99.90
51021;DHT22;38907;45.562;8.856;2022-10-31T19:23:04;16.00;99.90
51021;DHT22;38907;45.562;8.856;2022-10-31T19:28:06;16.10;99.90
51021;DHT22;38907;45.562;8.856;2022-10-31T19:33:08;16.00;99.90
51021;DHT22;38907;45.562;8.856;2022-10-31T19:38:11;16.10;99.90
51021;DHT22;38907;45.562;8.856;2022-10-31T19:43:13;16.00;99.90
51021;DHT22;38907;45.562;8.856;2022-10-31T19:48:16;16.00;99.90
51021;DHT22;38907;45.562;8.856;2022-10-31T19:53:19;15.80;99.90
51021;DHT22;38907;45.562;8.856;2022-10-31T19:58:21;15.70;99.90
51021;DHT22;38907;45.562;8.856;2022-10-31T20:03:23;15.80;99.90
51021;DHT22;38907;45.562;8.856;2022-10-31T20:08:26;15.70;99.90
51021;DHT22;38907;45.562;8.856;2022-10-31T20:13:31;15.80;99.90
51021;DHT22;38907;45.562;8.856;2022-10-31T20:18:33;15.80;99.90
51021;DHT22;38907;45.562;8.856;2022-10-31T20:23:38;15.90;99.90
51021;DHT22;38907;45.562;8.856;2022-10-31T20:28:40;15.90;99.90
51021;DHT22;38907;45.562;8.856;2022-10-31T20:33:42;15.80;99.90
51021;DHT22;38907;45.562;8.856;2022-10-31T20:38:45;15.80;99.90
51021;DHT22;38907;45.562;8.856;2022-10-31T20:43:47;15.80;99.90
51021;DHT22;38907;45.562;8.856;2022-10-31T20:48:49;15.80;99.90
51021;DHT22;38907;45.562;8.856;2022-10-31T20:53:54;15.60;99.90
51021;DHT22;38907;45.562;8.856;2022-10-31T20:58:57;15.50;99.90
51021;DHT22;38907;45.562;8.856;2022-10-31T21:04:00;15.40;99.90
51021;DHT22;38907;45.562;8.856;2022-10-31T21:09:07;15.30;99.90
51021;DHT22;38907;45.562;8.856;2022-10-31T21:14:10;15.40;99.90
51021;DHT22;38907;45.562;8.856;2022-10-31T21:19:12;15.30;99.90
51021;DHT22;38907;45.562;8.856;2022-10-31T21:24:18;14.90;99.90
51021;DHT22;38907;45.562;8.856;2022-10-31T21:29:23;14.90;99.90
51021;DHT22;38907;45.562;8.856;2022-10-31T21:34:26;15.00;99.90
51021;DHT22;38907;45.562;8.856;2022-10-31T21:39:32;14.90;99.90
51021;DHT22;38907;45.562;8.856;2022-10-31T21:44:36;14.80;99.90
51021;DHT22;38907;45.562;8.856;2022-10-31T21:49:38;14.80;99.90
51021;DHT22;38907;45.562;8.856;2022-10-31T21:54:42;14.80;99.90
51021;DHT22;38907;45.562;8.856;2022-10-31T21:59:46;14.80;99.90
51021;DHT22;38907;45.562;8.856;2022-10-31T22:04:49;14.70;99.90
51021;DHT22;38907;45.562;8.856;2022-10-31T22:09:53;14.60;99.90
51021;DHT22;38907;45.562;8.856;2022-10-31T22:14:57;14.70;99.90
51021;DHT22;38907;45.562;8.856;2022-10-31T22:20:00;14.60;99.90
51021;DHT22;38907;45.562;8.856;2022-10-31T22:25:05;14.60;99.90
51021;DHT22;38907;45.562;8.856;2022-10-31T22:30:10;14.60;99.90
51021;DHT22;38907;45.562;8.856;2022-10-31T22:35:12;14.40;99.90
51021;DHT22;38907;45.562;8.856;2022-10-31T22:40:17;14.30;99.90
51021;DHT22;38907;45.562;8.856;2022-10-31T22:45:20;14.50;99.90
51021;DHT22;38907;45.562;8.856;2022-10-31T22:50:23;14.60;99.90
51021;DHT22;38907;45.562;8.856;2022-10-31T22:55:27;14.50;99.90
51021;DHT22;38907;45.562;8.856;2022-10-31T23:00:29;14.50;99.90
51021;DHT22;38907;45.562;8.856;2022-10-31T23:05:30;14.50;99.90
51021;DHT22;38907;45.562;8.856;2022-10-31T23:10:35;14.60;99.90
51021;DHT22;38907;45.562;8.856;2022-10-31T23:15:40;14.50;99.90
51021;DHT22;38907;45.562;8.856;2022-10-31T23:20:42;14.40;99.90
51021;DHT22;38907;45.562;8.856;2022-10-31T23:25:46;14.40;99.90
51021;DHT22;38907;45.562;8.856;2022-10-31T23:31:05;14.20;99.90
51021;DHT22;38907;45.562;8.856;2022-10-31T23:36:08;14.20;99.90
51021;DHT22;38907;45.562;8.856;2022-10-31T23:41:11;14.10;99.90
51021;DHT22;38907;45.562;8.856;2022-10-31T23:46:13;14.10;99.90
51021;DHT22;38907;45.562;8.856;2022-10-31T23:51:15;13.80;99.90
51021;DHT22;38907;45.562;8.856;2022-10-31T23:56:18;13.90;99.90
